sensor_id;sensor_type;location;lat;lon;timestamp;P1;durP1;ratioP1;P2;durP2;ratioP2
48651;SDS011;34442;52.362;-1.302;2023-08-06T00:01:42;5.95;;;2.83;;
48651;SDS011;34442;52.362;-1.302;2023-08-06T00:04:08;5.07;;;2.20;;
48651;SDS011;34442;52.362;-1.302;2023-08-06T00:06:33;4.10;;;2.05;;
48651;SDS011;34442;52.362;-1.302;2023-08-06T00:08:58;5.00;;;2.28;;
48651;SDS011;34442;52.362;-1.302;2023-08-06T00:11:24;4.60;;;2.67;;
48651;SDS011;34442;52.362;-1.302;2023-08-06T00:13:49;5.75;;;2.80;;
48651;SDS011;34442;52.362;-1.302;2023-08-06T00:16:15;6.55;;;3.00;;
48651;SDS011;34442;52.362;-1.302;2023-08-06T00:18:40;6.95;;;3.95;;
48651;SDS011;34442;52.362;-1.302;2023-08-06T00:21:05;7.18;;;3.15;;
48651;SDS011;34442;52.362;-1.302;2023-08-06T00:23:33;6.75;;;3.45;;
48651;SDS011;34442;52.362;-1.302;2023-08-06T00:25:59;5.88;;;3.20;;
48651;SDS011;34442;52.362;-1.302;2023-08-06T00:28:24;5.03;;;2.80;;
48651;SDS011;34442;52.362;-1.302;2023-08-06T00:30:53;5.03;;;3.03;;
48651;SDS011;34442;52.362;-1.302;2023-08-06T00:33:19;5.75;;;3.17;;
48651;SDS011;34442;52.362;-1.302;2023-08-06T00:35:45;7.72;;;3.25;;
48651;SDS011;34442;52.362;-1.302;2023-08-06T00:38:12;6.13;;;2.88;;
48651;SDS011;34442;52.362;-1.302;2023-08-06T00:40:37;5.65;;;2.80;;
48651;SDS011;34442;52.362;-1.302;2023-08-06T00:43:03;4.05;;;2.30;;
48651;SDS011;34442;52.362;-1.302;2023-08-06T00:45:28;4.22;;;2.35;;
48651;SDS011;34442;52.362;-1.302;2023-08-06T00:47:55;2.83;;;1.65;;
48651;SDS011;34442;52.362;-1.302;2023-08-06T00:50:21;3.22;;;1.90;;
48651;SDS011;34442;52.362;-1.302;2023-08-06T00:52:47;3.53;;;1.73;;
48651;SDS011;34442;52.362;-1.302;2023-08-06T00:55:14;3.03;;;1.60;;
48651;SDS011;34442;52.362;-1.302;2023-08-06T00:57:40;3.22;;;1.58;;
48651;SDS011;34442;52.362;-1.302;2023-08-06T01:00:06;2.63;;;1.50;;
48651;SDS011;34442;52.362;-1.302;2023-08-06T01:02:32;2.78;;;1.52;;
48651;SDS011;34442;52.362;-1.302;2023-08-06T01:04:58;2.95;;;1.50;;
48651;SDS011;34442;52.362;-1.302;2023-08-06T01:07:33;2.70;;;1.45;;
48651;SDS011;34442;52.362;-1.302;2023-08-06T01:12:51;3.08;;;1.60;;
48651;SDS011;34442;52.362;-1.302;2023-08-06T01:15:37;3.75;;;2.05;;
48651;SDS011;34442;52.362;-1.302;2023-08-06T01:18:08;4.30;;;2.28;;
48651;SDS011;34442;52.362;-1.302;2023-08-06T01:20:35;2.83;;;1.70;;
48651;SDS011;34442;52.362;-1.302;2023-08-06T01:23:00;3.28;;;1.50;;
48651;SDS011;34442;52.362;-1.302;2023-08-06T01:25:28;3.05;;;1.60;;
48651;SDS011;34442;52.362;-1.302;2023-08-06T01:27:58;3.22;;;1.50;;
48651;SDS011;34442;52.362;-1.302;2023-08-06T01:30:45;2.75;;;1.60;;
48651;SDS011;34442;52.362;-1.302;2023-08-06T01:33:14;2.35;;;1.55;;
48651;SDS011;34442;52.362;-1.302;2023-08-06T01:35:44;4.68;;;2.13;;
48651;SDS011;34442;52.362;-1.302;2023-08-06T01:38:11;7.35;;;1.85;;
48651;SDS011;34442;52.362;-1.302;2023-08-06T01:40:36;4.53;;;2.00;;
48651;SDS011;34442;52.362;-1.302;2023-08-06T01:43:02;3.15;;;1.52;;
48651;SDS011;34442;52.362;-1.302;2023-08-06T01:45:27;3.55;;;1.90;;
48651;SDS011;34442;52.362;-1.302;2023-08-06T01:47:53;4.72;;;1.92;;
48651;SDS011;34442;52.362;-1.302;2023-08-06T01:50:18;4.43;;;1.98;;
48651;SDS011;34442;52.362;-1.302;2023-08-06T01:52:43;3.75;;;1.83;;
48651;SDS011;34442;52.362;-1.302;2023-08-06T01:55:09;3.90;;;1.80;;
48651;SDS011;34442;52.362;-1.302;2023-08-06T01:57:34;3.42;;;1.75;;
48651;SDS011;34442;52.362;-1.302;2023-08-06T02:00:00;3.58;;;1.65;;
48651;SDS011;34442;52.362;-1.302;2023-08-06T02:02:25;3.17;;;1.70;;
48651;SDS011;34442;52.362;-1.302;2023-08-06T02:04:50;2.53;;;1.45;;
48651;SDS011;34442;52.362;-1.302;2023-08-06T02:07:16;3.70;;;1.50;;
48651;SDS011;34442;52.362;-1.302;2023-08-06T02:09:41;2.53;;;1.40;;
48651;SDS011;34442;52.362;-1.302;2023-08-06T02:12:07;3.13;;;1.48;;
48651;SDS011;34442;52.362;-1.302;2023-08-06T02:14:33;3.08;;;1.60;;
48651;SDS011;34442;52.362;-1.302;2023-08-06T02:16:59;3.90;;;1.70;;
48651;SDS011;34442;52.362;-1.302;2023-08-06T02:19:24;3.00;;;1.60;;
48651;SDS011;34442;52.362;-1.302;2023-08-06T02:21:50;4.65;;;1.60;;
48651;SDS011;34442;52.362;-1.302;2023-08-06T02:24:15;4.35;;;1.63;;
48651;SDS011;34442;52.362;-1.302;2023-08-06T02:26:40;2.15;;;1.30;;
48651;SDS011;34442;52.362;-1.302;2023-08-06T02:29:06;3.75;;;2.20;;
48651;SDS011;34442;52.362;-1.302;2023-08-06T02:31:31;3.80;;;1.83;;
48651;SDS011;34442;52.362;-1.302;2023-08-06T02:33:57;3.42;;;1.73;;
48651;SDS011;34442;52.362;-1.302;2023-08-06T02:36:23;3.33;;;1.52;;
48651;SDS011;34442;52.362;-1.302;2023-08-06T02:38:49;3.08;;;1.50;;
48651;SDS011;34442;52.362;-1.302;2023-08-06T02:41:14;2.15;;;1.30;;
48651;SDS011;34442;52.362;-1.302;2023-08-06T02:43:40;2.88;;;1.40;;
48651;SDS011;34442;52.362;-1.302;2023-08-06T02:46:05;2.92;;;1.70;;
48651;SDS011;34442;52.362;-1.302;2023-08-06T02:48:30;2.53;;;1.30;;
48651;SDS011;34442;52.362;-1.302;2023-08-06T02:50:59;3.05;;;1.60;;
48651;SDS011;34442;52.362;-1.302;2023-08-06T02:53:25;4.45;;;1.50;;
48651;SDS011;34442;52.362;-1.302;2023-08-06T02:55:50;3.80;;;1.95;;
48651;SDS011;34442;52.362;-1.302;2023-08-06T02:58:16;3.65;;;1.92;;
48651;SDS011;34442;52.362;-1.302;2023-08-06T03:00:43;3.50;;;1.80;;
48651;SDS011;34442;52.362;-1.302;2023-08-06T03:03:09;3.75;;;1.83;;
48651;SDS011;34442;52.362;-1.302;2023-08-06T03:05:34;3.35;;;1.60;;
48651;SDS011;34442;52.362;-1.302;2023-08-06T03:08:00;4.03;;;1.70;;
48651;SDS011;34442;52.362;-1.302;2023-08-06T03:10:25;2.53;;;1.35;;
48651;SDS011;34442;52.362;-1.302;2023-08-06T03:12:51;2.85;;;1.58;;
48651;SDS011;34442;52.362;-1.302;2023-08-06T03:15:16;3.80;;;1.73;;
48651;SDS011;34442;52.362;-1.302;2023-08-06T03:17:42;3.63;;;1.83;;
48651;SDS011;34442;52.362;-1.302;2023-08-06T03:20:07;4.25;;;1.90;;
48651;SDS011;34442;52.362;-1.302;2023-08-06T03:22:33;2.85;;;1.52;;
48651;SDS011;34442;52.362;-1.302;2023-08-06T03:24:58;2.53;;;1.30;;
48651;SDS011;34442;52.362;-1.302;2023-08-06T03:27:24;2.58;;;1.50;;
48651;SDS011;34442;52.362;-1.302;2023-08-06T03:29:49;3.38;;;1.63;;
48651;SDS011;34442;52.362;-1.302;2023-08-06T03:32:18;3.53;;;1.63;;
48651;SDS011;34442;52.362;-1.302;2023-08-06T03:34:43;3.08;;;1.38;;
48651;SDS011;34442;52.362;-1.302;2023-08-06T03:37:09;3.30;;;1.75;;
48651;SDS011;34442;52.362;-1.302;2023-08-06T03:39:34;4.07;;;1.88;;
48651;SDS011;34442;52.362;-1.302;2023-08-06T03:41:59;3.00;;;1.50;;
48651;SDS011;34442;52.362;-1.302;2023-08-06T03:44:25;3.35;;;1.60;;
48651;SDS011;34442;52.362;-1.302;2023-08-06T03:46:52;3.45;;;1.67;;
48651;SDS011;34442;52.362;-1.302;2023-08-06T03:49:17;3.45;;;1.55;;
48651;SDS011;34442;52.362;-1.302;2023-08-06T03:51:43;3.47;;;1.90;;
48651;SDS011;34442;52.362;-1.302;2023-08-06T03:54:08;3.10;;;1.73;;
48651;SDS011;34442;52.362;-1.302;2023-08-06T03:56:33;3.50;;;1.70;;
48651;SDS011;34442;52.362;-1.302;2023-08-06T03:58:59;3.10;;;1.60;;
48651;SDS011;34442;52.362;-1.302;2023-08-06T04:01:24;2.72;;;1.40;;
48651;SDS011;34442;52.362;-1.302;2023-08-06T04:03:49;3.75;;;1.67;;
48651;SDS011;34442;52.362;-1.302;2023-08-06T04:06:15;2.42;;;1.70;;
48651;SDS011;34442;52.362;-1.302;2023-08-06T04:08:40;3.20;;;1.50;;
48651;SDS011;34442;52.362;-1.302;2023-08-06T04:11:05;3.42;;;1.75;;
48651;SDS011;34442;52.362;-1.302;2023-08-06T04:13:31;2.72;;;1.40;;
48651;SDS011;34442;52.362;-1.302;2023-08-06T04:16:00;3.35;;;1.80;;
48651;SDS011;34442;52.362;-1.302;2023-08-06T04:18:28;4.20;;;1.98;;
48651;SDS011;34442;52.362;-1.302;2023-08-06T04:20:54;4.38;;;2.40;;
48651;SDS011;34442;52.362;-1.302;2023-08-06T04:23:20;3.78;;;1.92;;
48651;SDS011;34442;52.362;-1.302;2023-08-06T04:25:46;4.20;;;2.22;;
48651;SDS011;34442;52.362;-1.302;2023-08-06T04:28:11;4.05;;;2.15;;
48651;SDS011;34442;52.362;-1.302;2023-08-06T04:30:37;3.85;;;1.77;;
48651;SDS011;34442;52.362;-1.302;2023-08-06T04:33:03;4.35;;;2.28;;
48651;SDS011;34442;52.362;-1.302;2023-08-06T04:35:28;4.80;;;2.30;;
48651;SDS011;34442;52.362;-1.302;2023-08-06T04:37:53;5.20;;;1.90;;
48651;SDS011;34442;52.362;-1.302;2023-08-06T04:40:19;5.15;;;2.20;;
48651;SDS011;34442;52.362;-1.302;2023-08-06T04:42:44;4.00;;;2.17;;
48651;SDS011;34442;52.362;-1.302;2023-08-06T04:45:10;4.78;;;2.50;;
48651;SDS011;34442;52.362;-1.302;2023-08-06T04:47:35;4.93;;;2.40;;
48651;SDS011;34442;52.362;-1.302;2023-08-06T04:50:01;5.00;;;2.20;;
48651;SDS011;34442;52.362;-1.302;2023-08-06T04:52:26;3.90;;;1.95;;
48651;SDS011;34442;52.362;-1.302;2023-08-06T04:54:53;3.22;;;1.88;;
48651;SDS011;34442;52.362;-1.302;2023-08-06T04:57:19;3.80;;;1.90;;
48651;SDS011;34442;52.362;-1.302;2023-08-06T04:59:45;4.03;;;1.77;;
48651;SDS011;34442;52.362;-1.302;2023-08-06T05:02:10;2.35;;;1.48;;
48651;SDS011;34442;52.362;-1.302;2023-08-06T05:04:36;3.42;;;1.58;;
48651;SDS011;34442;52.362;-1.302;2023-08-06T05:07:01;2.85;;;1.60;;
48651;SDS011;34442;52.362;-1.302;2023-08-06T05:09:27;3.60;;;1.80;;
48651;SDS011;34442;52.362;-1.302;2023-08-06T05:11:52;4.53;;;2.38;;
48651;SDS011;34442;52.362;-1.302;2023-08-06T05:14:17;3.80;;;1.90;;
48651;SDS011;34442;52.362;-1.302;2023-08-06T05:16:43;2.83;;;1.80;;
48651;SDS011;34442;52.362;-1.302;2023-08-06T05:19:08;3.30;;;1.60;;
48651;SDS011;34442;52.362;-1.302;2023-08-06T05:21:34;4.47;;;1.98;;
48651;SDS011;34442;52.362;-1.302;2023-08-06T05:23:59;4.35;;;1.60;;
48651;SDS011;34442;52.362;-1.302;2023-08-06T05:26:24;3.90;;;1.70;;
48651;SDS011;34442;52.362;-1.302;2023-08-06T05:28:50;3.88;;;1.67;;
48651;SDS011;34442;52.362;-1.302;2023-08-06T05:31:15;3.00;;;1.58;;
48651;SDS011;34442;52.362;-1.302;2023-08-06T05:33:40;3.47;;;1.63;;
48651;SDS011;34442;52.362;-1.302;2023-08-06T05:36:06;2.95;;;1.58;;
48651;SDS011;34442;52.362;-1.302;2023-08-06T05:38:31;3.40;;;1.58;;
48651;SDS011;34442;52.362;-1.302;2023-08-06T05:40:57;2.05;;;1.25;;
48651;SDS011;34442;52.362;-1.302;2023-08-06T05:43:22;3.28;;;1.70;;
48651;SDS011;34442;52.362;-1.302;2023-08-06T05:45:50;3.40;;;2.00;;
48651;SDS011;34442;52.362;-1.302;2023-08-06T05:48:16;3.08;;;1.65;;
48651;SDS011;34442;52.362;-1.302;2023-08-06T05:50:41;3.72;;;2.13;;
48651;SDS011;34442;52.362;-1.302;2023-08-06T05:53:07;3.92;;;1.52;;
48651;SDS011;34442;52.362;-1.302;2023-08-06T05:55:32;2.67;;;1.30;;
48651;SDS011;34442;52.362;-1.302;2023-08-06T05:57:58;3.17;;;1.25;;
48651;SDS011;34442;52.362;-1.302;2023-08-06T06:00:24;2.80;;;1.55;;
48651;SDS011;34442;52.362;-1.302;2023-08-06T06:02:49;3.17;;;1.58;;
48651;SDS011;34442;52.362;-1.302;2023-08-06T06:05:14;3.88;;;1.80;;
48651;SDS011;34442;52.362;-1.302;2023-08-06T06:07:40;2.30;;;1.30;;
48651;SDS011;34442;52.362;-1.302;2023-08-06T06:10:05;2.83;;;1.45;;
48651;SDS011;34442;52.362;-1.302;2023-08-06T06:12:31;3.80;;;1.70;;
48651;SDS011;34442;52.362;-1.302;2023-08-06T06:14:57;3.28;;;1.58;;
48651;SDS011;34442;52.362;-1.302;2023-08-06T06:17:22;2.75;;;1.40;;
48651;SDS011;34442;52.362;-1.302;2023-08-06T06:19:47;2.33;;;1.10;;
48651;SDS011;34442;52.362;-1.302;2023-08-06T06:22:13;4.13;;;1.75;;
48651;SDS011;34442;52.362;-1.302;2023-08-06T06:24:39;4.50;;;1.92;;
48651;SDS011;34442;52.362;-1.302;2023-08-06T06:27:04;2.42;;;1.20;;
48651;SDS011;34442;52.362;-1.302;2023-08-06T06:29:30;3.08;;;1.42;;
48651;SDS011;34442;52.362;-1.302;2023-08-06T06:31:55;3.30;;;1.50;;
48651;SDS011;34442;52.362;-1.302;2023-08-06T06:34:21;1.88;;;1.20;;
48651;SDS011;34442;52.362;-1.302;2023-08-06T06:36:47;3.78;;;1.70;;
48651;SDS011;34442;52.362;-1.302;2023-08-06T06:39:12;2.45;;;1.50;;
48651;SDS011;34442;52.362;-1.302;2023-08-06T06:41:38;2.13;;;1.10;;
48651;SDS011;34442;52.362;-1.302;2023-08-06T06:44:03;2.95;;;1.70;;
48651;SDS011;34442;52.362;-1.302;2023-08-06T06:46:29;3.30;;;1.50;;
48651;SDS011;34442;52.362;-1.302;2023-08-06T06:48:54;2.15;;;1.30;;
48651;SDS011;34442;52.362;-1.302;2023-08-06T06:51:19;3.65;;;1.67;;
48651;SDS011;34442;52.362;-1.302;2023-08-06T06:53:45;3.08;;;1.45;;
48651;SDS011;34442;52.362;-1.302;2023-08-06T06:56:10;4.45;;;1.95;;
48651;SDS011;34442;52.362;-1.302;2023-08-06T06:58:36;3.38;;;1.33;;
48651;SDS011;34442;52.362;-1.302;2023-08-06T07:01:03;3.70;;;1.98;;
48651;SDS011;34442;52.362;-1.302;2023-08-06T07:03:29;3.03;;;1.60;;
48651;SDS011;34442;52.362;-1.302;2023-08-06T07:05:58;2.67;;;1.48;;
48651;SDS011;34442;52.362;-1.302;2023-08-06T07:08:24;3.65;;;1.70;;
48651;SDS011;34442;52.362;-1.302;2023-08-06T07:10:50;4.65;;;1.70;;
48651;SDS011;34442;52.362;-1.302;2023-08-06T07:13:15;2.15;;;1.38;;
48651;SDS011;34442;52.362;-1.302;2023-08-06T07:15:41;2.45;;;1.40;;
48651;SDS011;34442;52.362;-1.302;2023-08-06T07:18:07;2.63;;;1.50;;
48651;SDS011;34442;52.362;-1.302;2023-08-06T07:20:32;2.85;;;1.40;;
48651;SDS011;34442;52.362;-1.302;2023-08-06T07:22:59;3.47;;;1.42;;
48651;SDS011;34442;52.362;-1.302;2023-08-06T07:25:25;2.22;;;1.35;;
48651;SDS011;34442;52.362;-1.302;2023-08-06T07:27:51;2.97;;;1.60;;
48651;SDS011;34442;52.362;-1.302;2023-08-06T07:30:16;3.08;;;1.80;;
48651;SDS011;34442;52.362;-1.302;2023-08-06T07:32:42;3.50;;;1.90;;
48651;SDS011;34442;52.362;-1.302;2023-08-06T07:35:07;4.47;;;1.75;;
48651;SDS011;34442;52.362;-1.302;2023-08-06T07:37:37;3.10;;;1.40;;
48651;SDS011;34442;52.362;-1.302;2023-08-06T07:40:03;2.85;;;1.48;;
48651;SDS011;34442;52.362;-1.302;2023-08-06T07:42:29;4.03;;;2.22;;
48651;SDS011;34442;52.362;-1.302;2023-08-06T07:44:55;3.35;;;1.75;;
48651;SDS011;34442;52.362;-1.302;2023-08-06T07:47:22;3.22;;;1.95;;
48651;SDS011;34442;52.362;-1.302;2023-08-06T07:49:47;2.75;;;1.60;;
48651;SDS011;34442;52.362;-1.302;2023-08-06T07:52:13;2.67;;;1.30;;
48651;SDS011;34442;52.362;-1.302;2023-08-06T07:54:38;2.15;;;1.35;;
48651;SDS011;34442;52.362;-1.302;2023-08-06T07:57:04;3.10;;;1.65;;
48651;SDS011;34442;52.362;-1.302;2023-08-06T07:59:30;3.47;;;1.60;;
48651;SDS011;34442;52.362;-1.302;2023-08-06T08:01:55;3.13;;;1.85;;
48651;SDS011;34442;52.362;-1.302;2023-08-06T08:04:21;2.83;;;1.70;;
48651;SDS011;34442;52.362;-1.302;2023-08-06T08:06:46;3.30;;;1.75;;
48651;SDS011;34442;52.362;-1.302;2023-08-06T08:09:12;3.40;;;1.88;;
48651;SDS011;34442;52.362;-1.302;2023-08-06T08:11:38;4.78;;;1.98;;
48651;SDS011;34442;52.362;-1.302;2023-08-06T08:14:04;2.65;;;1.67;;
48651;SDS011;34442;52.362;-1.302;2023-08-06T08:16:30;2.33;;;1.55;;
48651;SDS011;34442;52.362;-1.302;2023-08-06T08:18:55;3.67;;;2.13;;
48651;SDS011;34442;52.362;-1.302;2023-08-06T08:21:21;4.97;;;2.25;;
48651;SDS011;34442;52.362;-1.302;2023-08-06T08:23:46;5.45;;;2.78;;
48651;SDS011;34442;52.362;-1.302;2023-08-06T08:26:11;5.13;;;2.60;;
48651;SDS011;34442;52.362;-1.302;2023-08-06T08:28:37;4.20;;;2.20;;
48651;SDS011;34442;52.362;-1.302;2023-08-06T08:31:02;5.07;;;2.80;;
48651;SDS011;34442;52.362;-1.302;2023-08-06T08:33:28;4.30;;;2.45;;
48651;SDS011;34442;52.362;-1.302;2023-08-06T08:35:53;3.72;;;2.13;;
48651;SDS011;34442;52.362;-1.302;2023-08-06T08:38:18;4.60;;;2.30;;
48651;SDS011;34442;52.362;-1.302;2023-08-06T08:40:47;4.25;;;2.58;;
48651;SDS011;34442;52.362;-1.302;2023-08-06T08:43:16;4.13;;;2.40;;
48651;SDS011;34442;52.362;-1.302;2023-08-06T08:45:45;4.70;;;2.22;;
48651;SDS011;34442;52.362;-1.302;2023-08-06T08:48:14;5.45;;;2.90;;
48651;SDS011;34442;52.362;-1.302;2023-08-06T08:50:42;5.65;;;2.53;;
48651;SDS011;34442;52.362;-1.302;2023-08-06T08:53:12;4.10;;;2.20;;
48651;SDS011;34442;52.362;-1.302;2023-08-06T08:55:39;3.65;;;1.90;;
48651;SDS011;34442;52.362;-1.302;2023-08-06T08:58:05;4.18;;;2.30;;
48651;SDS011;34442;52.362;-1.302;2023-08-06T09:00:31;3.63;;;2.05;;
48651;SDS011;34442;52.362;-1.302;2023-08-06T09:02:56;5.10;;;2.45;;
48651;SDS011;34442;52.362;-1.302;2023-08-06T09:05:23;3.88;;;1.73;;
48651;SDS011;34442;52.362;-1.302;2023-08-06T09:07:53;4.43;;;2.03;;
48651;SDS011;34442;52.362;-1.302;2023-08-06T09:10:22;4.70;;;2.13;;
48651;SDS011;34442;52.362;-1.302;2023-08-06T09:12:50;5.72;;;2.75;;
48651;SDS011;34442;52.362;-1.302;2023-08-06T09:15:19;4.82;;;2.67;;
48651;SDS011;34442;52.362;-1.302;2023-08-06T09:17:45;3.05;;;1.67;;
48651;SDS011;34442;52.362;-1.302;2023-08-06T09:20:14;4.53;;;2.03;;
48651;SDS011;34442;52.362;-1.302;2023-08-06T09:22:40;4.68;;;2.30;;
48651;SDS011;34442;52.362;-1.302;2023-08-06T09:25:06;3.78;;;2.08;;
48651;SDS011;34442;52.362;-1.302;2023-08-06T09:27:36;3.85;;;2.00;;
48651;SDS011;34442;52.362;-1.302;2023-08-06T09:30:03;4.78;;;2.35;;
48651;SDS011;34442;52.362;-1.302;2023-08-06T09:32:47;3.92;;;2.28;;
48651;SDS011;34442;52.362;-1.302;2023-08-06T09:35:16;3.00;;;1.60;;
48651;SDS011;34442;52.362;-1.302;2023-08-06T09:37:43;4.75;;;2.63;;
48651;SDS011;34442;52.362;-1.302;2023-08-06T09:40:24;4.15;;;2.00;;
48651;SDS011;34442;52.362;-1.302;2023-08-06T09:42:52;4.00;;;2.03;;
48651;SDS011;34442;52.362;-1.302;2023-08-06T09:45:18;3.70;;;1.80;;
48651;SDS011;34442;52.362;-1.302;2023-08-06T09:47:44;2.95;;;1.52;;
48651;SDS011;34442;52.362;-1.302;2023-08-06T09:50:19;4.05;;;2.08;;
48651;SDS011;34442;52.362;-1.302;2023-08-06T09:52:46;3.70;;;1.70;;
48651;SDS011;34442;52.362;-1.302;2023-08-06T09:55:13;3.65;;;1.70;;
48651;SDS011;34442;52.362;-1.302;2023-08-06T09:57:40;3.40;;;1.60;;
48651;SDS011;34442;52.362;-1.302;2023-08-06T10:00:08;3.63;;;1.85;;
48651;SDS011;34442;52.362;-1.302;2023-08-06T10:02:35;3.17;;;1.65;;
48651;SDS011;34442;52.362;-1.302;2023-08-06T10:05:03;5.32;;;2.00;;
48651;SDS011;34442;52.362;-1.302;2023-08-06T10:07:30;2.50;;;1.48;;
48651;SDS011;34442;52.362;-1.302;2023-08-06T10:09:55;3.33;;;1.50;;
48651;SDS011;34442;52.362;-1.302;2023-08-06T10:12:22;2.75;;;1.50;;
48651;SDS011;34442;52.362;-1.302;2023-08-06T10:14:50;2.45;;;1.40;;
48651;SDS011;34442;52.362;-1.302;2023-08-06T10:17:18;2.90;;;1.30;;
48651;SDS011;34442;52.362;-1.302;2023-08-06T10:19:45;2.05;;;1.20;;
48651;SDS011;34442;52.362;-1.302;2023-08-06T10:22:16;1.98;;;1.10;;
48651;SDS011;34442;52.362;-1.302;2023-08-06T10:27:11;1.63;;;1.10;;
48651;SDS011;34442;52.362;-1.302;2023-08-06T10:29:37;1.52;;;1.13;;
48651;SDS011;34442;52.362;-1.302;2023-08-06T10:32:03;2.95;;;1.30;;
48651;SDS011;34442;52.362;-1.302;2023-08-06T10:37:34;3.17;;;1.30;;
48651;SDS011;34442;52.362;-1.302;2023-08-06T10:40:01;3.35;;;1.30;;
48651;SDS011;34442;52.362;-1.302;2023-08-06T10:42:28;2.08;;;1.38;;
48651;SDS011;34442;52.362;-1.302;2023-08-06T10:47:42;2.80;;;1.35;;
48651;SDS011;34442;52.362;-1.302;2023-08-06T10:50:10;1.67;;;0.98;;
48651;SDS011;34442;52.362;-1.302;2023-08-06T10:52:37;3.95;;;1.92;;
48651;SDS011;34442;52.362;-1.302;2023-08-06T10:55:03;2.90;;;1.30;;
48651;SDS011;34442;52.362;-1.302;2023-08-06T10:57:29;2.50;;;1.33;;
48651;SDS011;34442;52.362;-1.302;2023-08-06T10:59:54;3.80;;;1.48;;
48651;SDS011;34442;52.362;-1.302;2023-08-06T11:02:20;2.53;;;1.52;;
48651;SDS011;34442;52.362;-1.302;2023-08-06T11:04:45;3.25;;;1.50;;
48651;SDS011;34442;52.362;-1.302;2023-08-06T11:07:11;1.90;;;1.02;;
48651;SDS011;34442;52.362;-1.302;2023-08-06T11:09:38;2.15;;;1.10;;
48651;SDS011;34442;52.362;-1.302;2023-08-06T11:12:08;3.10;;;1.25;;
48651;SDS011;34442;52.362;-1.302;2023-08-06T11:14:35;3.22;;;1.30;;
48651;SDS011;34442;52.362;-1.302;2023-08-06T11:17:00;8.40;;;3.17;;
48651;SDS011;34442;52.362;-1.302;2023-08-06T11:19:26;4.70;;;1.80;;
48651;SDS011;34442;52.362;-1.302;2023-08-06T11:21:51;5.10;;;1.75;;
48651;SDS011;34442;52.362;-1.302;2023-08-06T11:24:17;3.65;;;1.58;;
48651;SDS011;34442;52.362;-1.302;2023-08-06T11:26:42;3.95;;;1.65;;
48651;SDS011;34442;52.362;-1.302;2023-08-06T11:29:09;4.10;;;1.90;;
48651;SDS011;34442;52.362;-1.302;2023-08-06T11:31:35;3.45;;;1.50;;
48651;SDS011;34442;52.362;-1.302;2023-08-06T11:34:01;3.33;;;1.75;;
48651;SDS011;34442;52.362;-1.302;2023-08-06T11:36:30;3.40;;;1.40;;
48651;SDS011;34442;52.362;-1.302;2023-08-06T11:39:01;3.63;;;1.75;;
48651;SDS011;34442;52.362;-1.302;2023-08-06T11:41:31;3.95;;;1.90;;
48651;SDS011;34442;52.362;-1.302;2023-08-06T11:43:57;3.75;;;1.35;;
48651;SDS011;34442;52.362;-1.302;2023-08-06T11:46:26;3.55;;;1.60;;
48651;SDS011;34442;52.362;-1.302;2023-08-06T11:48:52;3.15;;;1.35;;
48651;SDS011;34442;52.362;-1.302;2023-08-06T11:51:22;3.15;;;1.38;;
48651;SDS011;34442;52.362;-1.302;2023-08-06T11:53:49;2.65;;;1.00;;
48651;SDS011;34442;52.362;-1.302;2023-08-06T11:56:15;2.22;;;1.10;;
48651;SDS011;34442;52.362;-1.302;2023-08-06T11:58:41;2.05;;;1.20;;
48651;SDS011;34442;52.362;-1.302;2023-08-06T12:01:07;1.60;;;1.02;;
48651;SDS011;34442;52.362;-1.302;2023-08-06T12:03:38;1.40;;;0.80;;
48651;SDS011;34442;52.362;-1.302;2023-08-06T12:06:04;3.22;;;1.63;;
48651;SDS011;34442;52.362;-1.302;2023-08-06T12:08:30;4.43;;;1.77;;
48651;SDS011;34442;52.362;-1.302;2023-08-06T12:10:55;2.40;;;1.17;;
48651;SDS011;34442;52.362;-1.302;2023-08-06T12:13:21;3.53;;;1.40;;
48651;SDS011;34442;52.362;-1.302;2023-08-06T12:15:46;1.98;;;1.27;;
48651;SDS011;34442;52.362;-1.302;2023-08-06T12:18:12;2.88;;;1.48;;
48651;SDS011;34442;52.362;-1.302;2023-08-06T12:20:37;2.05;;;1.25;;
48651;SDS011;34442;52.362;-1.302;2023-08-06T12:23:03;2.22;;;1.25;;
48651;SDS011;34442;52.362;-1.302;2023-08-06T12:25:29;2.63;;;1.23;;
48651;SDS011;34442;52.362;-1.302;2023-08-06T12:27:54;3.00;;;1.40;;
48651;SDS011;34442;52.362;-1.302;2023-08-06T12:30:20;2.15;;;1.10;;
48651;SDS011;34442;52.362;-1.302;2023-08-06T12:32:45;1.85;;;0.93;;
48651;SDS011;34442;52.362;-1.302;2023-08-06T12:35:10;2.45;;;1.38;;
48651;SDS011;34442;52.362;-1.302;2023-08-06T12:37:36;1.95;;;1.10;;
48651;SDS011;34442;52.362;-1.302;2023-08-06T12:40:03;1.95;;;0.98;;
48651;SDS011;34442;52.362;-1.302;2023-08-06T12:42:29;1.38;;;0.90;;
48651;SDS011;34442;52.362;-1.302;2023-08-06T12:44:55;1.70;;;0.93;;
48651;SDS011;34442;52.362;-1.302;2023-08-06T12:47:20;2.92;;;1.15;;
48651;SDS011;34442;52.362;-1.302;2023-08-06T12:49:46;2.00;;;1.05;;
48651;SDS011;34442;52.362;-1.302;2023-08-06T12:52:11;1.80;;;1.00;;
48651;SDS011;34442;52.362;-1.302;2023-08-06T12:54:40;2.85;;;1.17;;
48651;SDS011;34442;52.362;-1.302;2023-08-06T12:57:05;3.15;;;1.45;;
48651;SDS011;34442;52.362;-1.302;2023-08-06T12:59:31;2.53;;;1.38;;
48651;SDS011;34442;52.362;-1.302;2023-08-06T13:01:58;3.55;;;1.40;;
48651;SDS011;34442;52.362;-1.302;2023-08-06T13:04:23;2.67;;;1.00;;
48651;SDS011;34442;52.362;-1.302;2023-08-06T13:06:49;1.88;;;1.10;;
48651;SDS011;34442;52.362;-1.302;2023-08-06T13:09:14;2.55;;;1.17;;
48651;SDS011;34442;52.362;-1.302;2023-08-06T13:11:40;3.45;;;1.60;;
48651;SDS011;34442;52.362;-1.302;2023-08-06T13:14:09;3.67;;;1.50;;
48651;SDS011;34442;52.362;-1.302;2023-08-06T13:16:36;2.95;;;1.50;;
48651;SDS011;34442;52.362;-1.302;2023-08-06T13:19:04;4.10;;;2.10;;
48651;SDS011;34442;52.362;-1.302;2023-08-06T13:24:16;4.18;;;2.00;;
48651;SDS011;34442;52.362;-1.302;2023-08-06T13:26:42;4.15;;;2.08;;
48651;SDS011;34442;52.362;-1.302;2023-08-06T13:29:07;4.88;;;1.83;;
48651;SDS011;34442;52.362;-1.302;2023-08-06T13:31:33;4.68;;;2.10;;
48651;SDS011;34442;52.362;-1.302;2023-08-06T13:33:58;4.70;;;1.98;;
48651;SDS011;34442;52.362;-1.302;2023-08-06T13:36:24;4.13;;;1.60;;
48651;SDS011;34442;52.362;-1.302;2023-08-06T13:38:51;5.45;;;2.22;;
48651;SDS011;34442;52.362;-1.302;2023-08-06T13:41:16;4.00;;;1.92;;
48651;SDS011;34442;52.362;-1.302;2023-08-06T13:43:42;4.28;;;1.52;;
48651;SDS011;34442;52.362;-1.302;2023-08-06T13:46:09;3.22;;;1.58;;
48651;SDS011;34442;52.362;-1.302;2023-08-06T13:48:34;5.75;;;2.50;;
48651;SDS011;34442;52.362;-1.302;2023-08-06T13:51:00;5.05;;;2.08;;
48651;SDS011;34442;52.362;-1.302;2023-08-06T13:53:25;4.55;;;2.35;;
48651;SDS011;34442;52.362;-1.302;2023-08-06T13:55:54;3.35;;;1.80;;
48651;SDS011;34442;52.362;-1.302;2023-08-06T13:58:20;4.32;;;2.40;;
48651;SDS011;34442;52.362;-1.302;2023-08-06T14:00:46;3.78;;;1.98;;
48651;SDS011;34442;52.362;-1.302;2023-08-06T14:03:11;3.38;;;1.42;;
48651;SDS011;34442;52.362;-1.302;2023-08-06T14:05:37;5.25;;;2.20;;
48651;SDS011;34442;52.362;-1.302;2023-08-06T14:08:02;4.28;;;1.88;;
48651;SDS011;34442;52.362;-1.302;2023-08-06T14:10:28;4.35;;;2.08;;
48651;SDS011;34442;52.362;-1.302;2023-08-06T14:12:53;4.40;;;2.00;;
48651;SDS011;34442;52.362;-1.302;2023-08-06T14:15:18;3.72;;;1.55;;
48651;SDS011;34442;52.362;-1.302;2023-08-06T14:17:44;3.80;;;1.80;;
48651;SDS011;34442;52.362;-1.302;2023-08-06T14:20:09;3.97;;;1.90;;
48651;SDS011;34442;52.362;-1.302;2023-08-06T14:22:36;4.53;;;1.80;;
48651;SDS011;34442;52.362;-1.302;2023-08-06T14:25:02;2.70;;;1.30;;
48651;SDS011;34442;52.362;-1.302;2023-08-06T14:27:28;3.45;;;1.58;;
48651;SDS011;34442;52.362;-1.302;2023-08-06T14:29:53;2.88;;;1.40;;
48651;SDS011;34442;52.362;-1.302;2023-08-06T14:32:19;3.38;;;1.48;;
48651;SDS011;34442;52.362;-1.302;2023-08-06T14:34:44;1.92;;;1.00;;
48651;SDS011;34442;52.362;-1.302;2023-08-06T14:37:10;1.88;;;1.00;;
48651;SDS011;34442;52.362;-1.302;2023-08-06T14:39:35;2.53;;;1.35;;
48651;SDS011;34442;52.362;-1.302;2023-08-06T14:42:01;2.65;;;1.40;;